KLM86K EGPH-EHAM
Flight info
| Callsign | KLM86K |
|---|---|
| Flight time | N/A |
| Altitude | 25000 |
| Route | TLA Y96 OTBUN/N0457F350 DCT ERKIT N110 DOLAS L603 LAMSO |
| Aircraft | B739/M-SDE2E3FGHIRWXY/LB1 |
Departure
| Time | N/A |
|---|---|
| Airport | Edinburgh Airport (EGPH) |
Arrival
| Time | 2026-04-30 18:18 |
|---|---|
| Airport | Amsterdam Airport Schiphol (EHAM) |
| Time | Latitude | Longitude | Altitude | Speed | Heading |
|---|---|---|---|---|---|
| 2026-04-30 17:39 | 53.78423 | -0.54273 | 35265 ft | 428 kts | 147° |
| 2026-04-30 17:42 | 53.54820 | -0.24178 | 35274 ft | 429 kts | 129° |
| 2026-04-30 17:43 | 53.45889 | -0.04092 | 35264 ft | 429 kts | 129° |
| 2026-04-30 17:44 | 53.35059 | 0.19780 | 35253 ft | 431 kts | 129° |
| 2026-04-30 17:47 | 53.18603 | 0.55622 | 35248 ft | 432 kts | 129° |
| 2026-04-30 17:48 | 53.05739 | 0.83291 | 35268 ft | 432 kts | 129° |
| 2026-04-30 17:49 | 52.98656 | 0.99440 | 35260 ft | 435 kts | 118° |
| 2026-04-30 17:50 | 52.95626 | 1.18860 | 35269 ft | 439 kts | 103° |
| 2026-04-30 17:52 | 52.92192 | 1.48722 | 35288 ft | 439 kts | 103° |
| 2026-04-30 17:54 | 52.86808 | 1.93359 | 35278 ft | 441 kts | 103° |
| 2026-04-30 17:56 | 52.81838 | 2.33313 | 32852 ft | 449 kts | 103° |
| 2026-04-30 17:57 | 52.79912 | 2.48506 | 30161 ft | 452 kts | 103° |
| 2026-04-30 17:58 | 52.77954 | 2.63748 | 27437 ft | 446 kts | 103° |
| 2026-04-30 17:59 | 52.75409 | 2.83342 | 24746 ft | 427 kts | 103° |
| 2026-04-30 18:00 | 52.72457 | 3.01967 | 21826 ft | 412 kts | 110° |
| 2026-04-30 18:00 | 52.69656 | 3.15129 | 19893 ft | 399 kts | 110° |
| 2026-04-30 18:01 | 52.67870 | 3.23690 | 18673 ft | 391 kts | 110° |
| 2026-04-30 18:02 | 52.65276 | 3.36224 | 16749 ft | 378 kts | 110° |
| 2026-04-30 18:02 | 52.62776 | 3.48256 | 14997 ft | 366 kts | 110° |
| 2026-04-30 18:03 | 52.60359 | 3.59821 | 13237 ft | 354 kts | 110° |
| 2026-04-30 18:04 | 52.57969 | 3.71187 | 11535 ft | 342 kts | 110° |
| 2026-04-30 18:05 | 52.55059 | 3.84957 | 10738 ft | 294 kts | 111° |
| 2026-04-30 18:06 | 52.52574 | 3.96632 | 10278 ft | 251 kts | 111° |
| 2026-04-30 18:07 | 52.50003 | 4.07252 | 9465 ft | 255 kts | 113° |
| 2026-04-30 18:08 | 52.48029 | 4.15287 | 8676 ft | 250 kts | 113° |
| 2026-04-30 18:09 | 52.45409 | 4.25947 | 6493 ft | 251 kts | 114° |
| 2026-04-30 18:10 | 52.42717 | 4.36568 | 4446 ft | 250 kts | 125° |
| 2026-04-30 18:11 | 52.36641 | 4.39446 | 4134 ft | 236 kts | 172° |
| 2026-04-30 18:11 | 52.31825 | 4.39971 | 3352 ft | 219 kts | 172° |
| 2026-04-30 18:12 | 52.28209 | 4.41662 | 2723 ft | 202 kts | 143° |
| 2026-04-30 18:13 | 52.25906 | 4.44220 | 2293 ft | 190 kts | 142° |
| 2026-04-30 18:13 | 52.22980 | 4.47572 | 1965 ft | 158 kts | 123° |
| 2026-04-30 18:14 | 52.22704 | 4.51069 | 1981 ft | 160 kts | 92° |
| 2026-04-30 18:15 | 52.22756 | 4.56563 | 1996 ft | 165 kts | 92° |
| 2026-04-30 18:15 | 52.24286 | 4.61600 | 1724 ft | 166 kts | 66° |
| 2026-04-30 18:16 | 52.25445 | 4.64661 | 1289 ft | 150 kts | 65° |
| 2026-04-30 18:16 | 52.26535 | 4.67511 | 934 ft | 143 kts | 64° |
| 2026-04-30 18:17 | 52.27052 | 4.68865 | 741 ft | 140 kts | 64° |
| 2026-04-30 18:17 | 52.27578 | 4.70245 | 549 ft | 144 kts | 62° |
| 2026-04-30 18:17 | 52.28660 | 4.73064 | 132 ft | 146 kts | 61° |
| 2026-04-30 18:18 | 52.29188 | 4.74437 | 2 ft | 137 kts | 62° |
| 2026-04-30 18:18 | 52.29614 | 4.75558 | -2 ft | 94 kts | 59° |
| 2026-04-30 18:18 | 52.29871 | 4.76227 | -4 ft | 50 kts | 58° |
| 2026-04-30 18:18 | 52.30002 | 4.76503 | -3 ft | 21 kts | 40° |
| 2026-04-30 18:19 | 52.30101 | 4.76602 | -2 ft | 13 kts | 28° |
| 2026-04-30 18:19 | 52.30169 | 4.76665 | -2 ft | 0 kts | 27° |
| 2026-04-30 18:19 | 52.30170 | 4.76665 | -2 ft | 1 kts | 26° |